Whitesburg, TN (37891)

8:24 AM EDT on September 23, 2014 (GMT -0400)
KTNMORRI6 | Change Station
CLOSE
Current Station
Personal Weather Station
Location: Morristown, TN
Elevation: 1283 ft
Nearby Weather Stations

Elev 1283 ft 36.21 °N, 83.37 °W | Updated 8 minutes ago

Fog
Fog
47.8 °F
Feels Like 48 °F
N
0.0
Wind Variable Wind from West

Today
High -- | Low -- °F
--% Chance of Precip.
Yesterday
High -- | Low -- °F
Precip. -- in
7:21 AM 7:27 PM
Waning Crescent, 1% visible
Pressure 30.31 in
Visibility 0.2 miles
Clouds Overcast 200 ft
Windchill 48 °F
Dew Point 46 °F
Humidity 95%
Rainfall 0.00 in
Snow Depth Not available.
UV 0 out of 12
Pollen 4.90 out of 12
Air Quality Not available.
Flu Activity Not available.
METAR K0VG 231215Z AUTO 00000KT M1/4SM -RA OVC002 05/05 A3031 RMK AO2

More Conditions Fewer Conditions

Pressure 30.31 in
Visibility 0.2 miles
Clouds Overcast 200 ft
Windchill 48 °F
Dew Point 46 °F
Humidity 95%
Rainfall 0.00 in
Snow Depth Not available.
UV 0 out of 12
Pollen 4.90 out of 12
Air Quality Not available.
Flu Activity Not available.
METAR K0VG 231215Z AUTO 00000KT M1/4SM -RA OVC002 05/05 A3031 RMK AO2

More Conditions Fewer Conditions

10-Day Weather Forecast

Almanac

Astronomy

Sep. 23, 2014 Rise Set
Actual Time 7:21 AM EDT 7:27 PM EDT
Civil Twilight 6:55 AM EDT 7:53 PM EDT
Nautical Twilight 6:25 AM EDT 8:23 PM EDT
Astronomical Twilight 5:55 AM EDT 8:53 PM EDT
Moon 6:44 AM EDT 7:06 PM EDT
Length of Visible Light 12h 57m
Length of Day
12h 06m
Tomorrow will be 2m 16s shorter.
Waning Crescent, 1% of the Moon is Illuminated
Today
Waning Crescent
Sep 24
New
Oct 1
First Quarter
Oct 8
Full
Oct 15
Last Quarter

Today's Extremes

State Highs State Lows

Community

WunderPhotos

Upload Photos

1,755,659 photos uploaded!

WunderBlogs® & News

Nearby

Snow Depth

Station Depth Elevation
No new snow has been reported.

Earthquake Activity

City Distance Mag. Time & Date
Sweetwater, Tennessee 83 miles 2.5 3:54 PM EDT
2014-09-20
Minimum magnitude displayed is 2.5.

Coastal Water Temperatures

Place Temperature
No Stations Reporting

Nearby Weather Stations